createdAt,value
2022-09-16T00:01:25.565Z,100.00
2022-09-16T00:04:10.729Z,100.00
2022-09-16T00:06:37.833Z,100.00
2022-09-16T00:09:05.203Z,100.00
2022-09-16T00:11:36.186Z,100.00
2022-09-16T00:14:07.749Z,100.00
2022-09-16T00:16:37.183Z,100.00
2022-09-16T00:19:04.749Z,100.00
2022-09-16T00:21:34.591Z,100.00
2022-09-16T00:24:03.170Z,100.00
2022-09-16T00:29:33.658Z,100.00
2022-09-16T00:32:01.196Z,100.00
2022-09-16T00:34:28.539Z,100.00
2022-09-16T00:36:58.589Z,100.00
2022-09-16T00:39:26.088Z,100.00
2022-09-16T00:41:56.102Z,100.00
2022-09-16T00:44:53.272Z,100.00
2022-09-16T00:47:29.412Z,100.00
2022-09-16T00:50:08.737Z,100.00
2022-09-16T00:52:36.824Z,100.00
2022-09-16T00:55:08.848Z,100.00
2022-09-16T00:57:40.206Z,100.00
2022-09-16T01:00:13.426Z,100.00
2022-09-16T01:02:43.999Z,100.00
2022-09-16T01:05:18.209Z,100.00
2022-09-16T01:07:55.688Z,100.00
2022-09-16T01:10:25.411Z,100.00
2022-09-16T01:12:57.579Z,100.00
2022-09-16T01:15:38.783Z,100.00
2022-09-16T01:18:23.423Z,100.00
2022-09-16T01:21:02.777Z,100.00
2022-09-16T01:23:42.052Z,100.00
2022-09-16T01:26:09.151Z,100.00
2022-09-16T01:29:02.102Z,100.00
2022-09-16T01:32:00.889Z,100.00
2022-09-16T01:34:50.304Z,100.00
2022-09-16T01:37:33.934Z,100.00
2022-09-16T01:40:09.840Z,100.00
2022-09-16T01:43:16.721Z,100.00
2022-09-16T01:46:16.160Z,100.00
2022-09-16T01:48:54.204Z,100.00
2022-09-16T01:51:27.428Z,100.00
2022-09-16T01:54:14.807Z,100.00
2022-09-16T01:56:52.964Z,100.00
2022-09-16T01:59:26.448Z,100.00
2022-09-16T02:02:15.046Z,100.00
2022-09-16T02:04:51.175Z,100.00
2022-09-16T02:07:20.881Z,100.00
2022-09-16T02:09:58.528Z,100.00
2022-09-16T02:12:30.518Z,100.00
2022-09-16T02:15:05.910Z,100.00
2022-09-16T02:17:37.980Z,100.00
2022-09-16T02:20:09.369Z,100.00
2022-09-16T02:23:03.904Z,100.00
2022-09-16T02:25:34.881Z,100.00
2022-09-16T02:28:06.409Z,100.00
2022-09-16T02:30:35.784Z,100.00
2022-09-16T02:33:07.883Z,100.00
2022-09-16T02:35:37.499Z,100.00
2022-09-16T02:38:09.840Z,100.00
2022-09-16T02:40:51.364Z,100.00
2022-09-16T02:43:19.410Z,100.00
2022-09-16T02:45:49.613Z,100.00
2022-09-16T02:48:29.054Z,100.00
2022-09-16T02:51:23.589Z,100.00
2022-09-16T02:53:58.404Z,100.00
2022-09-16T02:56:34.639Z,100.00
2022-09-16T02:59:03.132Z,100.00
2022-09-16T03:01:39.526Z,100.00
2022-09-16T03:04:06.888Z,100.00
2022-09-16T03:06:36.477Z,100.00
2022-09-16T03:09:09.262Z,100.00
2022-09-16T03:11:51.342Z,100.00
2022-09-16T03:14:41.828Z,100.00
2022-09-16T03:17:33.767Z,100.00
2022-09-16T03:20:47.691Z,100.00
2022-09-16T03:23:32.322Z,100.00
2022-09-16T03:26:04.718Z,100.00
2022-09-16T03:28:47.897Z,100.00
2022-09-16T03:32:10.606Z,100.00
2022-09-16T03:35:02.234Z,100.00
2022-09-16T03:37:35.630Z,100.00
2022-09-16T03:40:11.216Z,100.00
2022-09-16T03:42:40.533Z,100.00
2022-09-16T03:45:08.805Z,100.00
2022-09-16T03:47:36.054Z,100.00
2022-09-16T03:50:05.856Z,100.00
2022-09-16T03:52:33.360Z,100.00
2022-09-16T03:55:00.638Z,100.00
2022-09-16T03:57:30.910Z,100.00
2022-09-16T04:00:00.794Z,100.00
2022-09-16T04:02:30.998Z,100.00
2022-09-16T04:05:00.347Z,100.00
2022-09-16T04:07:27.551Z,100.00
2022-09-16T04:09:55.198Z,100.00
2022-09-16T04:12:23.973Z,100.00
2022-09-16T04:15:00.779Z,100.00
2022-09-16T04:17:33.058Z,100.00
2022-09-16T04:20:00.639Z,100.00
2022-09-16T04:22:36.196Z,100.00
2022-09-16T04:25:04.831Z,100.00
2022-09-16T04:27:32.074Z,100.00
2022-09-16T04:30:00.531Z,100.00
2022-09-16T04:32:27.802Z,100.00
2022-09-16T04:34:55.668Z,100.00
2022-09-16T04:37:24.461Z,100.00
2022-09-16T04:39:51.946Z,100.00
2022-09-16T04:42:22.545Z,100.00
2022-09-16T04:44:51.612Z,100.00
2022-09-16T04:47:24.337Z,100.00
2022-09-16T04:49:51.585Z,100.00
2022-09-16T04:52:19.641Z,100.00
2022-09-16T04:54:46.917Z,100.00
2022-09-16T04:57:22.151Z,100.00
2022-09-16T04:59:49.986Z,100.00
2022-09-16T05:04:58.548Z,100.00
2022-09-16T05:11:43.336Z,100.00
2022-09-16T05:17:50.435Z,100.00
2022-09-16T05:20:19.471Z,100.00
2022-09-16T05:22:55.821Z,100.00
2022-09-16T05:25:22.895Z,100.00
2022-09-16T05:28:01.324Z,100.00
2022-09-16T05:30:37.978Z,100.00
2022-09-16T05:33:06.307Z,100.00
2022-09-16T05:35:45.345Z,100.00
2022-09-16T05:38:14.045Z,100.00
2022-09-16T05:40:41.819Z,100.00
2022-09-16T05:43:09.956Z,100.00
2022-09-16T05:45:39.050Z,100.00
2022-09-16T05:48:07.475Z,100.00
2022-09-16T05:50:35.043Z,100.00
2022-09-16T05:53:02.805Z,100.00
2022-09-16T05:55:32.678Z,100.00
2022-09-16T05:57:59.934Z,100.00
2022-09-16T06:00:27.050Z,100.00
2022-09-16T06:02:54.521Z,100.00
2022-09-16T06:05:22.403Z,100.00
2022-09-16T06:07:50.422Z,100.00
2022-09-16T06:10:23.361Z,100.00
2022-09-16T06:12:54.999Z,100.00
2022-09-16T06:18:32.686Z,100.00
2022-09-16T06:21:21.627Z,100.00
2022-09-16T06:23:50.800Z,100.00
2022-09-16T06:26:25.206Z,100.00
2022-09-16T06:28:56.691Z,100.00
2022-09-16T06:31:34.659Z,100.00
2022-09-16T06:34:25.656Z,100.00
2022-09-16T06:37:20.884Z,100.00
2022-09-16T06:40:34.098Z,100.00
2022-09-16T06:47:33.357Z,100.00
2022-09-16T06:55:06.478Z,100.00
2022-09-16T06:57:38.752Z,100.00
2022-09-16T07:00:08.448Z,100.00
2022-09-16T07:02:37.515Z,100.00
2022-09-16T07:05:05.919Z,100.00
2022-09-16T07:07:37.102Z,100.00
2022-09-16T07:10:04.625Z,100.00
2022-09-16T07:12:32.148Z,100.00
2022-09-16T07:14:59.623Z,100.00
2022-09-16T07:17:27.794Z,100.00
2022-09-16T07:19:55.514Z,100.00
2022-09-16T07:22:25.765Z,100.00
2022-09-16T07:24:53.383Z,100.00
2022-09-16T07:27:20.553Z,100.00
2022-09-16T07:29:47.887Z,100.00
2022-09-16T07:32:15.799Z,100.00
2022-09-16T07:34:43.003Z,100.00
2022-09-16T07:37:14.004Z,100.00
2022-09-16T07:39:44.438Z,100.00
2022-09-16T07:42:11.858Z,100.00
2022-09-16T07:44:39.225Z,100.00
2022-09-16T07:47:07.124Z,100.00
2022-09-16T07:49:34.711Z,100.00
2022-09-16T07:52:05.028Z,100.00
2022-09-16T07:54:32.247Z,100.00
2022-09-16T07:57:00.882Z,100.00
2022-09-16T07:59:28.133Z,100.00
2022-09-16T08:01:56.728Z,100.00
2022-09-16T08:04:25.156Z,100.00
2022-09-16T08:06:52.189Z,100.00
2022-09-16T08:09:38.808Z,100.00
2022-09-16T08:12:08.148Z,100.00
2022-09-16T08:14:37.864Z,100.00
2022-09-16T08:17:05.155Z,100.00
2022-09-16T08:19:34.761Z,100.00
2022-09-16T08:22:02.000Z,100.00
2022-09-16T08:24:32.634Z,100.00
2022-09-16T08:26:59.908Z,100.00
2022-09-16T08:29:27.277Z,100.00
2022-09-16T08:31:54.494Z,100.00
2022-09-16T08:34:22.173Z,100.00
2022-09-16T08:36:49.383Z,100.00
2022-09-16T08:39:19.915Z,100.00
2022-09-16T08:42:38.691Z,100.00
2022-09-16T08:45:05.776Z,100.00
2022-09-16T08:47:46.103Z,100.00
2022-09-16T08:50:19.654Z,100.00
2022-09-16T08:53:05.371Z,100.00
2022-09-16T08:55:46.993Z,100.00
2022-09-16T08:58:27.154Z,100.00
2022-09-16T09:01:03.892Z,100.00
2022-09-16T09:03:35.147Z,100.00
2022-09-16T09:06:06.871Z,100.00
2022-09-16T09:08:58.744Z,100.00
2022-09-16T09:11:37.917Z,100.00
2022-09-16T09:14:24.479Z,100.00
2022-09-16T09:17:19.498Z,100.00
2022-09-16T09:20:06.189Z,100.00
2022-09-16T09:23:11.084Z,100.00
2022-09-16T09:25:57.118Z,100.00
2022-09-16T09:28:48.896Z,100.00
2022-09-16T09:31:43.274Z,100.00
2022-09-16T09:34:35.857Z,100.00
2022-09-16T09:37:11.328Z,100.00
2022-09-16T09:39:41.569Z,100.00
2022-09-16T09:42:39.561Z,100.00
2022-09-16T09:45:21.547Z,100.00
2022-09-16T09:47:57.807Z,100.00
2022-09-16T09:50:46.368Z,100.00
2022-09-16T09:53:28.997Z,100.00
2022-09-16T09:56:11.524Z,100.00
2022-09-16T09:58:53.974Z,100.00
2022-09-16T10:01:21.783Z,100.00
2022-09-16T10:03:51.918Z,100.00
2022-09-16T10:06:27.088Z,100.00
2022-09-16T10:08:58.345Z,100.00
2022-09-16T10:11:29.119Z,100.00
2022-09-16T10:13:59.647Z,100.00
2022-09-16T10:16:34.717Z,100.00
2022-09-16T10:19:18.546Z,100.00
2022-09-16T10:21:53.648Z,100.00
2022-09-16T10:24:29.554Z,100.00
2022-09-16T10:26:57.938Z,100.00
2022-09-16T10:29:25.133Z,100.00
2022-09-16T10:31:53.639Z,100.00
2022-09-16T10:34:42.566Z,100.00
2022-09-16T10:37:18.602Z,100.00
2022-09-16T10:39:57.892Z,100.00
2022-09-16T10:42:27.690Z,100.00
2022-09-16T10:45:26.032Z,100.00
2022-09-16T10:48:12.293Z,100.00
2022-09-16T10:50:39.699Z,100.00
2022-09-16T10:53:37.719Z,100.00
2022-09-16T10:56:19.131Z,100.00
2022-09-16T10:58:46.801Z,100.00
2022-09-16T11:01:33.645Z,100.00
2022-09-16T11:04:25.849Z,100.00
2022-09-16T11:07:04.008Z,100.00
2022-09-16T11:09:42.321Z,100.00
2022-09-16T11:12:31.989Z,100.00
2022-09-16T11:15:20.726Z,100.00
2022-09-16T11:18:32.748Z,100.00
2022-09-16T11:21:25.746Z,100.00
2022-09-16T11:24:08.802Z,100.00
2022-09-16T11:26:50.727Z,100.00
2022-09-16T11:29:36.733Z,100.00
2022-09-16T11:32:46.153Z,100.00
2022-09-16T11:35:31.720Z,100.00
2022-09-16T11:38:29.761Z,100.00
2022-09-16T11:41:08.924Z,100.00
2022-09-16T11:43:35.985Z,100.00
2022-09-16T11:46:35.190Z,100.00
2022-09-16T11:49:26.075Z,100.00
2022-09-16T11:51:53.140Z,100.00
2022-09-16T11:54:45.101Z,100.00
2022-09-16T11:57:18.774Z,100.00
2022-09-16T11:59:52.918Z,100.00
2022-09-16T12:02:37.261Z,100.00
2022-09-16T12:05:19.522Z,100.00
2022-09-16T12:07:49.617Z,100.00
2022-09-16T12:10:23.782Z,100.00
2022-09-16T12:13:00.677Z,100.00
2022-09-16T12:15:47.947Z,100.00
2022-09-16T12:18:22.860Z,100.00
2022-09-16T12:21:01.069Z,100.00
2022-09-16T12:23:32.394Z,100.00
2022-09-16T12:26:18.652Z,100.00
2022-09-16T12:29:04.096Z,100.00
2022-09-16T12:31:38.349Z,100.00
2022-09-16T12:34:15.164Z,100.00
2022-09-16T12:36:47.867Z,100.00
2022-09-16T12:39:20.764Z,100.00
2022-09-16T12:42:14.117Z,100.00
2022-09-16T12:45:13.667Z,100.00
2022-09-16T12:48:02.179Z,100.00
2022-09-16T12:50:56.606Z,100.00
2022-09-16T12:53:32.661Z,100.00
2022-09-16T12:56:19.832Z,100.00
2022-09-16T12:59:04.686Z,100.00
2022-09-16T13:01:39.278Z,54.37
2022-09-16T13:04:38.096Z,68.66
2022-09-16T13:07:06.243Z,69.16
2022-09-16T13:09:39.103Z,69.87
2022-09-16T13:15:07.650Z,69.30
2022-09-16T13:17:37.849Z,69.63
2022-09-16T13:20:19.103Z,70.33
2022-09-16T13:23:17.666Z,70.92
2022-09-16T13:25:56.806Z,70.24
2022-09-16T13:28:40.878Z,71.61
2022-09-16T13:31:18.069Z,71.18
2022-09-16T13:34:02.501Z,71.36
2022-09-16T13:36:33.000Z,71.29
2022-09-16T13:39:02.767Z,71.71
2022-09-16T13:41:37.823Z,72.58
2022-09-16T13:44:40.992Z,73.25
2022-09-16T13:47:11.136Z,72.48
2022-09-16T13:49:46.240Z,73.56
2022-09-16T13:52:20.542Z,73.20
2022-09-16T13:55:09.998Z,73.59
2022-09-16T13:58:12.359Z,74.50
2022-09-16T14:01:28.114Z,74.59
2022-09-16T14:04:37.897Z,74.38
2022-09-16T14:07:14.726Z,74.43
2022-09-16T14:09:59.294Z,74.60
2022-09-16T14:12:44.504Z,74.98
2022-09-16T14:15:14.385Z,74.69
2022-09-16T14:17:51.195Z,74.84
2022-09-16T14:20:27.127Z,75.46
2022-09-16T14:23:07.693Z,75.87
2022-09-16T14:25:37.042Z,75.39
2022-09-16T14:28:15.803Z,76.43
2022-09-16T14:30:55.011Z,76.26
2022-09-16T14:33:56.556Z,76.97
2022-09-16T14:36:30.429Z,76.42
2022-09-16T14:39:39.519Z,76.98
2022-09-16T14:42:21.674Z,76.79
2022-09-16T14:44:53.072Z,76.49
2022-09-16T14:47:52.336Z,77.65
2022-09-16T14:50:27.075Z,76.53
2022-09-16T14:53:01.419Z,76.82
2022-09-16T14:55:36.294Z,76.38
2022-09-16T14:58:07.085Z,76.56
2022-09-16T15:00:55.302Z,77.26
2022-09-16T15:03:43.087Z,77.58
2022-09-16T15:06:16.473Z,76.76
2022-09-16T15:08:55.171Z,77.23
2022-09-16T15:11:47.509Z,76.80
2022-09-16T15:14:16.970Z,77.08
2022-09-16T15:16:55.884Z,77.58
2022-09-16T15:19:34.289Z,77.49
2022-09-16T15:22:02.869Z,77.49
2022-09-16T15:24:34.469Z,77.43
2022-09-16T15:27:02.899Z,77.38
2022-09-16T15:29:38.636Z,77.71
2022-09-16T15:32:15.470Z,77.67
2022-09-16T15:34:44.581Z,77.23
2022-09-16T15:37:33.644Z,78.39
2022-09-16T15:40:20.908Z,78.39
2022-09-16T15:43:25.707Z,77.69
2022-09-16T15:46:05.595Z,78.33
2022-09-16T15:48:46.412Z,78.30
2022-09-16T15:55:25.312Z,77.95
2022-09-16T15:58:49.038Z,78.81
2022-09-16T16:01:40.346Z,78.84
2022-09-16T16:05:10.840Z,78.94
2022-09-16T16:08:47.340Z,79.48
2022-09-16T16:11:41.219Z,78.42
2022-09-16T16:31:39.573Z,78.38
2022-09-16T16:34:10.052Z,78.21
2022-09-16T16:37:44.373Z,78.99
2022-09-16T16:41:01.876Z,79.73
2022-09-16T16:44:37.883Z,78.76
2022-09-16T16:47:20.445Z,78.60
2022-09-16T16:54:06.823Z,79.17
2022-09-16T16:56:58.571Z,79.30
2022-09-16T17:25:48.562Z,78.75
2022-09-16T17:42:56.123Z,79.92
2022-09-16T17:54:07.014Z,80.25
2022-09-16T18:01:48.207Z,79.73
2022-09-16T18:39:25.978Z,79.96
2022-09-16T18:42:30.374Z,79.28
2022-09-16T18:45:04.097Z,79.01
2022-09-16T18:52:25.095Z,79.67
2022-09-16T18:55:20.884Z,78.91
2022-09-16T18:57:50.863Z,79.35
2022-09-16T19:00:32.539Z,79.49
2022-09-16T19:03:02.939Z,79.55
2022-09-16T19:05:30.105Z,79.83
2022-09-16T19:07:57.381Z,80.17
2022-09-16T19:10:27.497Z,80.04
2022-09-16T19:12:58.436Z,80.30
2022-09-16T19:15:31.191Z,79.90
2022-09-16T19:17:58.524Z,80.41
2022-09-16T19:20:25.952Z,80.50
2022-09-16T19:23:03.380Z,80.46
2022-09-16T19:25:40.596Z,80.88
2022-09-16T19:32:43.488Z,80.77
2022-09-16T19:39:50.033Z,80.69
2022-09-16T19:42:17.143Z,80.64
2022-09-16T19:44:44.538Z,81.13
2022-09-16T19:47:12.229Z,80.92
2022-09-16T19:49:39.486Z,80.81
2022-09-16T19:52:06.840Z,80.89
2022-09-16T19:54:34.196Z,80.96
2022-09-16T19:57:02.770Z,81.19
2022-09-16T19:59:31.237Z,81.31
2022-09-16T20:01:59.937Z,81.03
2022-09-16T20:04:27.376Z,81.05
2022-09-16T20:06:54.797Z,81.16
2022-09-16T20:09:21.917Z,80.94
2022-09-16T20:11:49.664Z,81.11
2022-09-16T20:14:21.962Z,81.43
2022-09-16T20:16:51.118Z,80.61
2022-09-16T20:19:20.257Z,81.07
2022-09-16T20:21:47.693Z,80.99
2022-09-16T20:24:18.548Z,80.91
2022-09-16T20:26:47.359Z,81.17
2022-09-16T20:29:15.018Z,81.50
2022-09-16T20:31:42.277Z,81.45
2022-09-16T20:34:14.471Z,81.23
2022-09-16T20:37:03.295Z,81.44
